createdAt,value
2022-08-15T00:00:33.119Z,16.60
2022-08-15T00:03:10.077Z,15.07
2022-08-15T00:05:41.314Z,14.93
2022-08-15T00:08:49.991Z,14.30
2022-08-15T00:11:20.106Z,15.93
2022-08-15T00:13:59.741Z,13.77
2022-08-15T00:16:35.367Z,13.17
2022-08-15T00:19:07.727Z,11.63
2022-08-15T00:21:37.742Z,13.67
2022-08-15T00:24:20.466Z,13.43
2022-08-15T00:26:58.106Z,17.33
2022-08-15T00:29:38.218Z,25.87
2022-08-15T00:33:19.224Z,25.27
2022-08-15T00:35:00.054Z,19.43
2022-08-15T00:37:29.242Z,18.10
2022-08-15T00:39:57.964Z,18.27
2022-08-15T00:42:30.404Z,14.87
2022-08-15T00:45:07.247Z,14.07
2022-08-15T00:47:42.264Z,14.40
2022-08-15T00:50:24.429Z,14.90
2022-08-15T00:53:05.926Z,14.57
2022-08-15T00:55:35.922Z,13.97
2022-08-15T00:58:07.195Z,14.97
2022-08-15T01:00:55.388Z,13.83
2022-08-15T01:03:29.278Z,16.63
2022-08-15T01:05:59.910Z,13.47
2022-08-15T01:08:38.849Z,16.07
2022-08-15T01:11:14.182Z,15.97
2022-08-15T01:14:02.653Z,15.20
2022-08-15T01:16:35.135Z,13.80
2022-08-15T01:19:15.597Z,14.77
2022-08-15T01:22:04.588Z,15.00
2022-08-15T01:25:16.784Z,16.90
2022-08-15T01:27:42.439Z,13.70
2022-08-15T01:30:38.939Z,16.77
2022-08-15T01:33:02.044Z,14.20
2022-08-15T01:35:33.347Z,15.33
2022-08-15T01:38:38.133Z,16.13
2022-08-15T01:41:26.129Z,16.70
2022-08-15T01:44:31.760Z,14.47
2022-08-15T01:47:12.842Z,16.53
2022-08-15T01:49:58.783Z,16.73
2022-08-15T01:52:57.987Z,23.37
2022-08-15T01:55:32.182Z,17.00
2022-08-15T01:58:07.572Z,16.17
2022-08-15T02:00:37.000Z,15.77
2022-08-15T02:03:12.096Z,16.80
2022-08-15T02:05:55.692Z,16.70
2022-08-15T02:08:34.954Z,17.27
2022-08-15T02:11:16.382Z,15.63
2022-08-15T02:13:55.697Z,18.63
2022-08-15T02:16:25.965Z,16.87
2022-08-15T02:18:54.040Z,20.60
2022-08-15T02:21:36.808Z,17.50
2022-08-15T02:24:20.179Z,16.33
2022-08-15T02:26:49.915Z,18.10
2022-08-15T02:29:24.353Z,19.30
2022-08-15T02:31:53.983Z,16.10
2022-08-15T02:34:45.026Z,18.90
2022-08-15T02:37:23.237Z,17.50
2022-08-15T02:39:57.881Z,19.60
2022-08-15T02:42:40.346Z,17.27
2022-08-15T02:45:13.624Z,20.63
2022-08-15T02:47:45.207Z,18.87
2022-08-15T02:50:16.689Z,17.40
2022-08-15T02:52:51.292Z,16.70
2022-08-15T02:55:20.485Z,18.43
2022-08-15T02:57:59.463Z,18.77
2022-08-15T03:00:33.234Z,17.37
2022-08-15T03:03:07.019Z,20.83
2022-08-15T03:05:37.382Z,20.33
2022-08-15T03:08:06.842Z,16.83
2022-08-15T03:10:39.639Z,18.60
2022-08-15T03:13:11.680Z,19.17
2022-08-15T03:15:45.028Z,19.57
2022-08-15T03:18:30.984Z,20.93
2022-08-15T03:21:00.524Z,22.50
2022-08-15T03:23:41.909Z,18.63
2022-08-15T03:26:26.564Z,16.03
2022-08-15T03:29:01.008Z,14.63
2022-08-15T03:31:44.644Z,20.00
2022-08-15T03:34:16.650Z,16.77
2022-08-15T03:36:52.107Z,20.33
2022-08-15T03:39:22.003Z,18.30
2022-08-15T03:41:54.646Z,18.27
2022-08-15T03:44:27.668Z,18.60
2022-08-15T03:46:58.623Z,22.23
2022-08-15T03:50:25.099Z,20.90
2022-08-15T03:52:15.408Z,16.03
2022-08-15T03:55:03.634Z,19.50
2022-08-15T03:58:01.833Z,18.67
2022-08-15T04:00:23.325Z,18.43
2022-08-15T04:03:05.548Z,19.60
2022-08-15T04:05:40.540Z,18.13
2022-08-15T04:08:44.335Z,18.07
2022-08-15T04:11:02.169Z,18.17
2022-08-15T04:13:31.892Z,20.10
2022-08-15T04:17:00.778Z,17.20
2022-08-15T04:18:52.096Z,18.23
2022-08-15T04:21:27.857Z,16.47
2022-08-15T04:23:55.932Z,17.97
2022-08-15T04:26:26.647Z,21.40
2022-08-15T04:28:57.914Z,18.00
2022-08-15T04:31:32.959Z,19.30
2022-08-15T04:34:47.463Z,19.63
2022-08-15T04:36:53.024Z,16.80
2022-08-15T04:39:26.111Z,21.30
2022-08-15T04:42:03.836Z,17.13
2022-08-15T04:44:32.566Z,13.30
2022-08-15T04:47:00.851Z,21.13
2022-08-15T04:49:30.464Z,16.80
2022-08-15T04:52:09.405Z,17.73
2022-08-15T04:54:38.111Z,15.80
2022-08-15T04:57:27.119Z,18.90
2022-08-15T05:00:05.705Z,14.60
2022-08-15T05:03:00.996Z,12.57
2022-08-15T05:05:25.587Z,16.80
2022-08-15T05:08:14.025Z,15.70
2022-08-15T05:10:42.884Z,16.80
2022-08-15T05:13:16.622Z,14.10
2022-08-15T05:15:53.294Z,15.03
2022-08-15T05:18:23.519Z,15.20
2022-08-15T05:20:54.120Z,17.30
2022-08-15T05:23:34.205Z,15.60
2022-08-15T05:26:37.385Z,14.37
2022-08-15T05:29:01.071Z,15.23
2022-08-15T05:31:32.360Z,11.50
2022-08-15T05:34:01.718Z,11.80
2022-08-15T05:36:34.761Z,11.73
2022-08-15T05:39:11.871Z,11.30
2022-08-15T05:41:53.468Z,10.40
2022-08-15T05:44:39.274Z,12.03
2022-08-15T05:47:26.551Z,9.60
2022-08-15T05:50:00.215Z,9.77
2022-08-15T05:52:37.824Z,9.30
2022-08-15T05:55:24.795Z,13.53
2022-08-15T05:58:15.511Z,10.87
2022-08-15T06:01:14.591Z,9.70
2022-08-15T06:03:49.009Z,10.13
2022-08-15T06:06:25.686Z,13.67
2022-08-15T06:09:04.106Z,10.60
2022-08-15T06:11:38.562Z,9.63
2022-08-15T06:14:17.230Z,8.83
2022-08-15T06:16:51.371Z,9.17
2022-08-15T06:19:34.939Z,9.70
2022-08-15T06:22:14.034Z,13.73
2022-08-15T06:24:56.340Z,10.90
2022-08-15T06:27:41.510Z,8.80
2022-08-15T06:30:20.760Z,9.87
2022-08-15T06:32:57.621Z,10.93
2022-08-15T06:35:33.482Z,10.90
2022-08-15T06:38:30.688Z,10.33
2022-08-15T06:41:06.480Z,9.80
2022-08-15T06:43:35.477Z,11.73
2022-08-15T06:46:46.070Z,14.30
2022-08-15T06:49:01.315Z,12.13
2022-08-15T06:51:45.063Z,10.17
2022-08-15T06:54:35.123Z,12.33
2022-08-15T06:57:17.370Z,9.23
2022-08-15T07:00:00.811Z,8.57
2022-08-15T07:02:44.467Z,6.50
2022-08-15T07:05:25.535Z,7.10
2022-08-15T07:08:02.484Z,6.10
2022-08-15T07:10:38.162Z,5.47
2022-08-15T07:13:14.653Z,5.27
2022-08-15T07:15:55.039Z,5.13
2022-08-15T07:18:33.431Z,5.87
2022-08-15T07:21:10.734Z,4.63
2022-08-15T07:24:33.001Z,5.80
2022-08-15T07:26:55.556Z,6.50
2022-08-15T07:29:34.921Z,6.13
2022-08-15T07:32:32.034Z,6.97
2022-08-15T07:35:26.949Z,5.33
2022-08-15T07:38:01.774Z,8.93
2022-08-15T07:40:39.685Z,12.17
2022-08-15T07:43:33.777Z,8.90
2022-08-15T07:46:23.201Z,8.13
2022-08-15T07:49:01.099Z,6.57
2022-08-15T07:51:46.176Z,6.10
2022-08-15T07:54:34.622Z,5.13
2022-08-15T07:57:10.018Z,7.80
2022-08-15T08:00:37.033Z,7.70
2022-08-15T08:02:37.369Z,7.93
2022-08-15T08:05:06.844Z,14.40
2022-08-15T08:07:43.467Z,9.50
2022-08-15T08:10:25.425Z,14.40
2022-08-15T08:13:19.476Z,7.17
2022-08-15T08:16:08.930Z,18.30
2022-08-15T08:18:48.931Z,13.40
2022-08-15T08:21:28.462Z,14.70
2022-08-15T08:24:08.299Z,10.10
2022-08-15T08:26:43.334Z,14.33
2022-08-15T08:29:21.942Z,12.20
2022-08-15T08:32:29.830Z,8.80
2022-08-15T08:35:06.692Z,6.47
2022-08-15T08:37:42.772Z,7.73
2022-08-15T08:40:49.982Z,8.33
2022-08-15T08:43:28.873Z,10.47
2022-08-15T08:46:02.831Z,6.60
2022-08-15T08:48:52.352Z,8.77
2022-08-15T08:51:35.818Z,8.40
2022-08-15T08:54:28.898Z,5.37
2022-08-15T08:57:08.715Z,6.53
2022-08-15T08:59:46.539Z,8.07
2022-08-15T09:02:29.369Z,6.03
2022-08-15T09:05:02.550Z,9.73
2022-08-15T09:07:40.850Z,7.60
2022-08-15T09:10:27.661Z,10.13
2022-08-15T09:13:19.610Z,6.20
2022-08-15T09:15:54.631Z,7.73
2022-08-15T09:18:29.783Z,5.00
2022-08-15T09:20:59.395Z,8.73
2022-08-15T09:23:39.521Z,10.13
2022-08-15T09:26:20.252Z,9.37
2022-08-15T09:28:59.989Z,5.10
2022-08-15T09:31:40.401Z,6.87
2022-08-15T09:34:30.900Z,9.47
2022-08-15T09:37:30.240Z,4.13
2022-08-15T09:40:57.620Z,4.60
2022-08-15T09:43:44.392Z,3.67
2022-08-15T09:46:54.147Z,5.90
2022-08-15T09:49:44.648Z,3.77
2022-08-15T09:52:35.487Z,4.47
2022-08-15T09:55:22.597Z,5.23
2022-08-15T09:57:54.044Z,3.23
2022-08-15T10:00:42.633Z,4.80
2022-08-15T10:03:24.275Z,4.87
2022-08-15T10:06:32.846Z,7.70
2022-08-15T10:09:16.469Z,6.77
2022-08-15T10:12:08.903Z,6.20
2022-08-15T10:14:44.313Z,8.03
2022-08-15T10:17:28.475Z,5.93
2022-08-15T10:20:01.041Z,4.10
2022-08-15T10:22:57.845Z,5.70
2022-08-15T10:25:37.142Z,6.53
2022-08-15T10:28:37.453Z,3.10
2022-08-15T10:31:51.969Z,6.37
2022-08-15T10:34:36.997Z,8.50
2022-08-15T10:37:11.247Z,2.17
2022-08-15T10:40:03.219Z,4.00
2022-08-15T10:42:55.347Z,2.73
2022-08-15T10:45:30.073Z,4.47
2022-08-15T10:48:13.155Z,5.33
2022-08-15T10:50:54.258Z,2.93
2022-08-15T10:53:50.394Z,2.93
2022-08-15T10:57:00.045Z,2.60
2022-08-15T10:59:22.770Z,5.13
2022-08-15T11:02:03.453Z,6.30
2022-08-15T11:04:57.750Z,3.80
2022-08-15T11:07:35.921Z,6.47
2022-08-15T11:10:21.094Z,4.37
2022-08-15T11:12:55.174Z,4.50
2022-08-15T11:15:27.580Z,5.10
2022-08-15T11:18:21.830Z,3.40
2022-08-15T11:20:56.965Z,5.53
2022-08-15T11:23:38.586Z,4.97
2022-08-15T11:26:15.932Z,7.50
2022-08-15T11:28:57.595Z,7.60
2022-08-15T11:31:36.638Z,5.23
2022-08-15T11:34:23.968Z,3.70
2022-08-15T11:37:16.380Z,3.53
2022-08-15T11:39:49.063Z,3.33
2022-08-15T11:42:21.809Z,3.30
2022-08-15T11:44:58.110Z,3.13
2022-08-15T11:47:30.436Z,3.97
2022-08-15T11:50:02.383Z,5.80
2022-08-15T11:52:40.488Z,5.53
2022-08-15T11:55:24.496Z,6.47
2022-08-15T11:58:01.846Z,3.80
2022-08-15T12:00:39.666Z,4.70
2022-08-15T12:04:42.069Z,4.57
2022-08-15T12:09:16.392Z,4.90
2022-08-15T12:11:52.317Z,3.90
2022-08-15T12:13:17.313Z,6.60
2022-08-15T12:14:28.151Z,4.33
2022-08-15T12:17:03.711Z,4.47
2022-08-15T12:20:25.271Z,4.40
2022-08-15T12:22:46.093Z,5.50
2022-08-15T12:25:51.721Z,6.77
2022-08-15T12:28:34.085Z,3.47
2022-08-15T12:31:15.469Z,3.73
2022-08-15T12:33:48.672Z,3.87
2022-08-15T12:37:04.737Z,6.83
2022-08-15T12:39:11.032Z,4.60
2022-08-15T12:42:48.060Z,4.33
2022-08-15T12:44:34.557Z,5.87
2022-08-15T12:47:08.685Z,6.20
2022-08-15T12:49:47.007Z,4.13
2022-08-15T12:52:18.724Z,6.73
2022-08-15T12:54:54.450Z,3.47
2022-08-15T12:57:26.320Z,5.20
2022-08-15T13:00:35.229Z,3.30
2022-08-15T13:03:07.749Z,4.80
2022-08-15T13:06:30.666Z,5.63
2022-08-15T13:08:39.315Z,7.47
2022-08-15T13:11:16.330Z,3.90
2022-08-15T13:13:49.140Z,4.00
2022-08-15T13:17:08.463Z,4.73
2022-08-15T13:19:10.095Z,5.73
2022-08-15T13:22:02.759Z,5.93
2022-08-15T13:24:35.621Z,5.07
2022-08-15T13:27:05.759Z,5.67
2022-08-15T13:29:54.493Z,6.63
2022-08-15T13:32:24.149Z,6.60
2022-08-15T13:34:52.929Z,4.60
2022-08-15T13:37:59.126Z,5.63
2022-08-15T13:40:20.390Z,5.63
2022-08-15T13:43:10.295Z,4.67
2022-08-15T13:45:56.755Z,5.60
2022-08-15T13:48:36.879Z,3.03
2022-08-15T13:51:11.266Z,3.07
2022-08-15T13:54:04.398Z,4.33
2022-08-15T13:56:33.006Z,5.33
2022-08-15T13:59:03.543Z,6.50
2022-08-15T14:01:34.634Z,3.20
2022-08-15T14:04:05.908Z,2.83
2022-08-15T14:06:35.807Z,3.60
2022-08-15T14:09:18.563Z,6.30
2022-08-15T14:11:57.132Z,4.07
2022-08-15T14:14:36.048Z,8.10
2022-08-15T14:17:09.834Z,6.73
2022-08-15T14:20:00.852Z,3.17
2022-08-15T14:22:28.199Z,6.57
2022-08-15T14:25:15.336Z,4.97
2022-08-15T14:30:55.410Z,3.63
2022-08-15T14:33:24.736Z,5.60
2022-08-15T14:35:58.406Z,3.70
2022-08-15T14:38:33.326Z,3.23
2022-08-15T14:41:03.316Z,5.57
2022-08-15T14:43:39.479Z,3.17
2022-08-15T14:46:34.727Z,6.67
2022-08-15T14:49:00.770Z,3.97
2022-08-15T14:52:05.996Z,4.63
2022-08-15T14:54:40.755Z,10.07
2022-08-15T14:57:12.029Z,4.63
2022-08-15T14:59:58.141Z,3.80
2022-08-15T15:02:33.522Z,3.70
2022-08-15T15:05:04.860Z,5.20
2022-08-15T15:07:54.049Z,3.43
2022-08-15T15:10:24.962Z,2.50
2022-08-15T15:12:56.686Z,5.53
2022-08-15T15:15:25.667Z,3.93
2022-08-15T15:17:55.504Z,4.53
2022-08-15T15:20:46.701Z,7.20
2022-08-15T15:23:13.746Z,7.47
2022-08-15T15:25:43.401Z,5.03
2022-08-15T15:28:35.797Z,2.97
2022-08-15T15:31:02.250Z,5.43
2022-08-15T15:33:34.241Z,5.20
2022-08-15T15:36:06.613Z,3.20
2022-08-15T15:39:01.049Z,2.40
2022-08-15T15:41:32.589Z,6.20
2022-08-15T15:44:19.479Z,3.20
2022-08-15T15:46:52.214Z,2.87
2022-08-15T15:49:32.360Z,2.50
2022-08-15T15:52:06.599Z,4.43
2022-08-15T15:54:53.091Z,2.87
2022-08-15T15:57:25.047Z,2.43
2022-08-15T16:00:00.112Z,2.93
2022-08-15T16:02:49.198Z,2.60
2022-08-15T16:05:23.571Z,6.20
2022-08-15T16:08:31.909Z,4.40
2022-08-15T16:11:07.946Z,2.73
2022-08-15T16:13:44.915Z,2.90
2022-08-15T16:16:19.483Z,2.60
2022-08-15T16:18:51.763Z,2.60
2022-08-15T16:21:58.596Z,3.50
2022-08-15T16:24:31.296Z,3.20
2022-08-15T16:27:13.107Z,3.00
2022-08-15T16:29:54.221Z,3.63
2022-08-15T16:32:31.999Z,2.50
2022-08-15T16:35:06.042Z,2.40
2022-08-15T16:37:42.275Z,2.67
2022-08-15T16:40:28.250Z,6.03
2022-08-15T16:43:21.721Z,3.23
2022-08-15T16:46:01.356Z,3.77
2022-08-15T16:48:57.433Z,2.60
2022-08-15T16:51:40.163Z,3.30
2022-08-15T16:54:39.019Z,1.60
2022-08-15T16:57:14.104Z,1.60
2022-08-15T16:59:52.922Z,2.00
2022-08-15T17:03:04.902Z,3.30
2022-08-15T17:05:37.015Z,2.00
2022-08-15T17:08:14.696Z,2.13
2022-08-15T17:10:56.592Z,2.30
2022-08-15T17:14:02.011Z,4.30
2022-08-15T17:16:42.756Z,2.93
2022-08-15T17:19:18.560Z,6.33
2022-08-15T17:21:54.912Z,1.90
2022-08-15T17:24:54.569Z,3.70
2022-08-15T17:27:37.815Z,3.30
2022-08-15T17:30:53.982Z,1.80
2022-08-15T17:33:16.512Z,1.40
2022-08-15T17:35:51.582Z,1.43
2022-08-15T17:38:30.640Z,3.30
2022-08-15T17:41:03.492Z,1.77
2022-08-15T17:43:40.467Z,2.97
2022-08-15T17:46:18.557Z,2.13
2022-08-15T17:48:54.665Z,4.63
2022-08-15T17:51:32.859Z,6.10
2022-08-15T17:54:22.349Z,2.83
2022-08-15T17:56:58.403Z,1.47
2022-08-15T17:59:39.291Z,1.90
2022-08-15T18:02:31.714Z,6.93
2022-08-15T18:05:01.348Z,5.13
2022-08-15T18:07:38.040Z,2.37
2022-08-15T18:10:31.007Z,2.97
2022-08-15T18:13:02.528Z,3.53
2022-08-15T18:15:34.366Z,2.47
2022-08-15T18:18:21.097Z,2.53
2022-08-15T18:20:50.567Z,3.07
2022-08-15T18:23:21.848Z,1.77
2022-08-15T18:25:52.159Z,3.93
2022-08-15T18:28:32.875Z,8.50
2022-08-15T18:31:14.625Z,2.57
2022-08-15T18:33:57.388Z,4.33
2022-08-15T18:36:41.573Z,2.60
2022-08-15T18:39:28.950Z,4.83
2022-08-15T18:41:57.520Z,2.47
2022-08-15T18:44:33.867Z,4.30
2022-08-15T18:47:09.608Z,2.03
2022-08-15T18:49:40.371Z,3.10
2022-08-15T18:52:29.510Z,1.67
2022-08-15T18:55:09.238Z,2.60
2022-08-15T18:57:52.659Z,5.30
2022-08-15T19:00:33.020Z,2.33
2022-08-15T19:03:05.913Z,2.03
2022-08-15T19:05:43.172Z,4.53
2022-08-15T19:08:37.903Z,3.93
2022-08-15T19:11:16.388Z,2.40
2022-08-15T19:13:57.490Z,1.90
2022-08-15T19:16:34.470Z,5.00
2022-08-15T19:19:20.348Z,2.40
2022-08-15T19:21:55.848Z,4.00
2022-08-15T19:24:30.523Z,3.47
2022-08-15T19:27:18.316Z,4.03
2022-08-15T19:29:59.699Z,3.20
2022-08-15T19:32:40.999Z,3.87
2022-08-15T19:35:20.299Z,3.20
2022-08-15T19:38:14.085Z,5.47
2022-08-15T19:40:52.686Z,3.33
2022-08-15T19:43:32.983Z,3.67
2022-08-15T19:46:35.130Z,3.73
2022-08-15T19:49:34.285Z,3.57
2022-08-15T19:52:11.219Z,3.00
2022-08-15T19:55:39.278Z,3.67
2022-08-15T19:58:28.680Z,7.30
2022-08-15T20:00:52.982Z,3.77
2022-08-15T20:03:33.070Z,3.27
2022-08-15T20:06:09.931Z,3.83
2022-08-15T20:08:53.825Z,2.63
2022-08-15T20:11:32.298Z,5.43
2022-08-15T20:14:47.405Z,3.80
2022-08-15T20:17:17.347Z,2.70
2022-08-15T20:20:26.312Z,7.63
2022-08-15T20:23:11.696Z,6.23
2022-08-15T20:25:49.578Z,3.87
2022-08-15T20:28:37.506Z,4.03
2022-08-15T20:31:16.812Z,3.70
2022-08-15T20:33:54.359Z,12.80
2022-08-15T20:36:27.764Z,3.80
2022-08-15T20:39:01.850Z,3.93
2022-08-15T20:41:34.885Z,4.20
2022-08-15T20:44:31.456Z,3.30
2022-08-15T20:47:05.935Z,4.03
2022-08-15T20:49:36.179Z,4.23
2022-08-15T20:52:41.542Z,2.87
2022-08-15T20:54:55.649Z,5.30
2022-08-15T20:57:32.463Z,3.13
2022-08-15T21:01:08.052Z,3.17
2022-08-15T21:04:01.702Z,5.60
2022-08-15T21:06:20.109Z,10.67
2022-08-15T21:09:09.147Z,4.80
2022-08-15T21:11:55.094Z,4.93
2022-08-15T21:15:07.318Z,5.63
2022-08-15T21:17:32.700Z,10.37
2022-08-15T21:20:33.083Z,3.67
2022-08-15T21:23:21.547Z,3.83
2022-08-15T21:25:53.011Z,2.83
2022-08-15T21:28:31.645Z,3.53
2022-08-15T21:31:31.301Z,3.73
2022-08-15T21:34:33.367Z,3.50
2022-08-15T21:37:36.104Z,4.03
2022-08-15T21:40:45.918Z,3.63
2022-08-15T21:43:58.477Z,3.23
2022-08-15T21:47:06.769Z,6.13
2022-08-15T21:49:59.578Z,4.40
2022-08-15T21:53:02.750Z,14.53
2022-08-15T21:55:51.802Z,5.23
2022-08-15T21:58:38.085Z,3.40
2022-08-15T22:01:36.333Z,6.27
2022-08-15T22:04:16.271Z,5.10
2022-08-15T22:06:45.191Z,5.17
2022-08-15T22:09:33.400Z,4.90
2022-08-15T22:12:07.363Z,4.50
2022-08-15T22:14:42.688Z,3.43
2022-08-15T22:17:13.310Z,4.73
2022-08-15T22:19:43.443Z,10.20
2022-08-15T22:22:19.397Z,4.83
2022-08-15T22:24:56.995Z,6.70
2022-08-15T22:27:33.700Z,10.13
2022-08-15T22:30:05.977Z,8.40
2022-08-15T22:32:38.170Z,3.80
2022-08-15T22:35:10.074Z,5.80
2022-08-15T22:37:46.847Z,3.60
2022-08-15T22:40:20.107Z,4.20
2022-08-15T22:42:55.177Z,3.00
2022-08-15T22:45:35.626Z,4.43
2022-08-15T22:48:19.001Z,2.97
2022-08-15T22:50:56.535Z,6.60
2022-08-15T22:53:32.006Z,4.20
2022-08-15T22:56:45.654Z,3.83
2022-08-15T22:58:51.482Z,8.17
2022-08-15T23:01:24.875Z,7.73
2022-08-15T23:04:08.615Z,7.00
2022-08-15T23:06:46.132Z,4.00
2022-08-15T23:09:35.352Z,3.53
2022-08-15T23:12:10.578Z,4.13
2022-08-15T23:14:43.522Z,4.10
2022-08-15T23:17:15.439Z,4.03
2022-08-15T23:19:57.588Z,6.13
2022-08-15T23:22:35.654Z,5.33
2022-08-15T23:25:08.434Z,6.10
2022-08-15T23:27:42.799Z,5.60
2022-08-15T23:30:43.961Z,3.23
2022-08-15T23:33:07.732Z,3.47
2022-08-15T23:35:57.371Z,4.70
2022-08-15T23:38:27.070Z,4.77
2022-08-15T23:41:03.244Z,3.30
2022-08-15T23:43:33.458Z,3.10
2022-08-15T23:46:36.646Z,4.20
2022-08-15T23:48:51.340Z,4.80
2022-08-15T23:51:21.163Z,3.30
2022-08-15T23:53:52.810Z,8.33
2022-08-15T23:56:35.421Z,4.87
2022-08-15T23:59:11.599Z,2.30
